Time;durP1;ratioP1;P1;durP2;ratioP2;P2;SDS_P1;SDS_P2;PMS_P1;PMS_P2;Temp;Humidity;BMP_temperature;BMP_pressure;BME280_temperature;BME280_humidity;BME280_pressure;Samples;Min_cycle;Max_cycle;Signal;HPM_P1;HPM_P2
2021/12/31 00:01:12;;;;;;;;;;;;;;;12.21;nan;101145.63;5056329;28;20007;-86
2021/12/31 00:03:38;;;;;;;;;;;;;;;12.22;nan;101145.44;5052500;28;19978;-86
2021/12/31 00:06:03;;;;;;;;;;;;;;;12.24;nan;101153.25;5034997;28;19921;-85
2021/12/31 00:08:28;;;;;;;;;;;;;;;12.17;nan;101150.38;5036121;28;19921;-84
2021/12/31 00:10:59;;;;;;;;;;;;;;;12.15;nan;101154.97;5051234;28;20023;-85
2021/12/31 00:13:24;;;;;;;;;;;;;;;12.20;nan;101151.88;5052717;28;19927;-85
2021/12/31 00:15:50;;;;;;;;;;;;;;;12.19;nan;101152.88;5051390;28;20267;-85
2021/12/31 00:18:15;;;;;;;;;;;;;;;12.18;nan;101148.53;5052878;28;20405;-85
2021/12/31 00:20:41;;;;;;;;;;;;;;;12.16;nan;101150.53;5043589;28;19924;-85
2021/12/31 00:23:12;;;;;;;;;;;;;;;12.13;nan;101143.66;5051627;28;20018;-85
2021/12/31 00:25:40;;;;;;;;;;;;;;;12.12;nan;101149.97;5047659;28;20290;-86
2021/12/31 00:28:06;;;;;;;;;;;;;;;12.14;nan;101144.53;5046217;28;20325;-86
2021/12/31 00:30:31;;;;;;;;;;;;;;;12.09;nan;101151.09;5043676;28;19921;-86
2021/12/31 00:32:57;;;;;;;;;;;;;;;12.03;nan;101149.03;5052856;28;20390;-86
2021/12/31 00:35:22;;;;;;;;;;;;;;;12.00;nan;101149.31;5046177;28;19928;-86
2021/12/31 00:37:47;;;;;;;;;;;;;;;11.99;nan;101152.97;5048985;28;19925;-86
2021/12/31 00:40:14;;;;;;;;;;;;;;;11.97;nan;101154.91;5048680;28;19921;-85
2021/12/31 00:42:39;;;;;;;;;;;;;;;12.01;nan;101147.50;5049380;28;19986;-85
2021/12/31 00:45:06;;;;;;;;;;;;;;;12.00;nan;101149.31;5055054;28;19921;-85
2021/12/31 00:47:32;;;;;;;;;;;;;;;12.00;nan;101151.16;5047014;28;19916;-85
2021/12/31 00:49:57;;;;;;;;;;;;;;;12.02;nan;101155.31;5047599;28;20031;-85
2021/12/31 00:52:23;;;;;;;;;;;;;;;11.95;nan;101150.75;5048425;28;19924;-85
2021/12/31 00:54:48;;;;;;;;;;;;;;;11.97;nan;101160.22;5048526;28;19920;-85
2021/12/31 00:57:14;;;;;;;;;;;;;;;11.95;nan;101156.88;5043883;28;20301;-85
2021/12/31 00:59:40;;;;;;;;;;;;;;;12.02;nan;101150.00;5040908;28;19943;-85
2021/12/31 01:02:06;;;;;;;;;;;;;;;12.08;nan;101151.25;5048073;28;19928;-87
2021/12/31 01:04:32;;;;;;;;;;;;;;;12.10;nan;101154.56;5044705;28;20294;-85
2021/12/31 01:07:01;;;;;;;;;;;;;;;12.08;nan;101144.16;5053271;28;19921;-85
2021/12/31 01:09:27;;;;;;;;;;;;;;;12.09;nan;101153.75;5051709;28;19927;-85
2021/12/31 01:11:52;;;;;;;;;;;;;;;12.10;nan;101154.56;5043624;28;19921;-85
2021/12/31 01:16:57;;;;;;;;;;;;;;;12.10;nan;101151.94;5052510;28;20516;-85
2021/12/31 01:21:48;;;;;;;;;;;;;;;12.09;nan;101148.44;5044654;28;19921;-85
2021/12/31 01:24:13;;;;;;;;;;;;;;;12.04;nan;101148.06;5040742;28;19921;-85
2021/12/31 01:26:38;;;;;;;;;;;;;;;12.01;nan;101142.19;5051369;28;19971;-86
2021/12/31 01:29:04;;;;;;;;;;;;;;;12.03;nan;101142.88;5049447;28;19929;-85
2021/12/31 01:31:29;;;;;;;;;;;;;;;11.99;nan;101150.31;5052442;28;20586;-85
2021/12/31 01:33:54;;;;;;;;;;;;;;;11.99;nan;101152.97;5050298;28;19980;-86
2021/12/31 01:36:19;;;;;;;;;;;;;;;11.92;nan;101143.06;5051915;28;19925;-86
2021/12/31 01:38:45;;;;;;;;;;;;;;;11.93;nan;101144.75;5046272;28;19920;-85
2021/12/31 01:41:12;;;;;;;;;;;;;;;11.87;nan;101138.22;5047802;28;19975;-85
2021/12/31 01:43:38;;;;;;;;;;;;;;;11.83;nan;101142.94;5036337;28;19925;-86
2021/12/31 01:46:11;;;;;;;;;;;;;;;11.82;nan;101145.72;5052865;28;20383;-86
2021/12/31 01:48:48;;;;;;;;;;;;;;;11.80;nan;101147.72;5051955;28;19928;-86
2021/12/31 01:51:13;;;;;;;;;;;;;;;11.78;nan;101149.66;5044396;28;19921;-86
2021/12/31 01:53:39;;;;;;;;;;;;;;;11.79;nan;101159.25;5043322;28;19917;-86
2021/12/31 01:56:05;;;;;;;;;;;;;;;11.76;nan;101159.56;5050150;28;20011;-87
2021/12/31 01:58:30;;;;;;;;;;;;;;;11.72;nan;101159.00;5052115;28;19971;-86
2021/12/31 02:00:55;;;;;;;;;;;;;;;11.62;nan;101161.69;5047426;28;19925;-86
2021/12/31 02:03:22;;;;;;;;;;;;;;;11.60;nan;101160.97;5044513;28;19929;-86
2021/12/31 02:05:47;;;;;;;;;;;;;;;11.57;nan;101163.91;5044313;28;19928;-86
2021/12/31 02:08:12;;;;;;;;;;;;;;;11.60;nan;101166.28;5048224;28;19921;-86
2021/12/31 02:10:38;;;;;;;;;;;;;;;11.57;nan;101173.69;5050525;28;19921;-86
2021/12/31 02:13:03;;;;;;;;;;;;;;;11.51;nan;101167.13;5049995;28;19921;-86
2021/12/31 02:15:30;;;;;;;;;;;;;;;11.43;nan;101167.00;5052049;28;19970;-86
2021/12/31 02:17:56;;;;;;;;;;;;;;;11.42;nan;101168.00;5049970;28;20011;-86
2021/12/31 02:20:22;;;;;;;;;;;;;;;11.37;nan;101163.13;5049689;28;20023;-86
2021/12/31 02:22:54;;;;;;;;;;;;;;;11.34;nan;101171.34;5044019;28;20374;-86
2021/12/31 02:25:22;;;;;;;;;;;;;;;11.27;nan;101167.59;5041815;28;19997;-86
2021/12/31 02:27:48;;;;;;;;;;;;;;;11.27;nan;101171.09;5047220;28;20451;-86
2021/12/31 02:30:14;;;;;;;;;;;;;;;11.35;nan;101174.84;5049490;28;19921;-86
2021/12/31 02:32:39;;;;;;;;;;;;;;;11.35;nan;101173.03;5049665;28;19927;-86
2021/12/31 02:35:05;;;;;;;;;;;;;;;11.35;nan;101164.25;5050371;28;19955;-86
2021/12/31 02:37:32;;;;;;;;;;;;;;;11.37;nan;101164.91;5051744;28;19947;-86
2021/12/31 02:39:57;;;;;;;;;;;;;;;11.46;nan;101172.88;5048078;28;19921;-85
2021/12/31 02:42:22;;;;;;;;;;;;;;;11.48;nan;101170.91;5051290;28;20405;-86
2021/12/31 02:44:50;;;;;;;;;;;;;;;11.48;nan;101170.91;5036115;28;20322;-86
2021/12/31 02:47:15;;;;;;;;;;;;;;;11.46;nan;101177.31;5051218;28;20012;-86
2021/12/31 02:49:41;;;;;;;;;;;;;;;11.44;nan;101173.97;5055273;28;19960;-86
2021/12/31 02:52:09;;;;;;;;;;;;;;;11.46;nan;101177.31;5037768;28;20020;-86
2021/12/31 02:54:36;;;;;;;;;;;;;;;11.46;nan;101182.63;5054870;28;19909;-86
2021/12/31 02:57:01;;;;;;;;;;;;;;;11.48;nan;101181.50;5056967;28;19921;-86
2021/12/31 02:59:27;;;;;;;;;;;;;;;11.47;nan;101190.44;5048497;28;19931;-86
2021/12/31 03:01:52;;;;;;;;;;;;;;;11.41;nan;101187.50;5044762;28;19925;-86
2021/12/31 03:04:20;;;;;;;;;;;;;;;11.43;nan;101174.97;5044904;28;20315;-86
2021/12/31 03:06:46;;;;;;;;;;;;;;;11.42;nan;101182.06;5046443;28;19925;-86
2021/12/31 03:09:12;;;;;;;;;;;;;;;11.44;nan;101180.13;5042952;28;20297;-86
2021/12/31 03:11:37;;;;;;;;;;;;;;;11.47;nan;101182.47;5038460;28;19921;-86
2021/12/31 03:14:04;;;;;;;;;;;;;;;11.45;nan;101184.44;5050271;28;20015;-86
2021/12/31 03:16:29;;;;;;;;;;;;;;;11.45;nan;101179.13;5036521;28;20406;-86
2021/12/31 03:18:56;;;;;;;;;;;;;;;11.48;nan;101189.44;5037449;28;19920;-86
2021/12/31 03:21:21;;;;;;;;;;;;;;;11.48;nan;101178.84;5051619;28;19967;-86
2021/12/31 03:23:49;;;;;;;;;;;;;;;11.50;nan;101194.59;5050924;28;19929;-86
2021/12/31 03:26:14;;;;;;;;;;;;;;;11.48;nan;101185.97;5048426;28;20340;-86
2021/12/31 03:28:39;;;;;;;;;;;;;;;11.48;nan;101183.31;5041645;28;19925;-86
2021/12/31 03:31:04;;;;;;;;;;;;;;;11.48;nan;101180.66;5047916;28;19925;-86
2021/12/31 03:33:29;;;;;;;;;;;;;;;11.47;nan;101185.13;5051315;28;20007;-86
2021/12/31 03:35:55;;;;;;;;;;;;;;;11.53;nan;101175.78;5049386;28;20338;-86
2021/12/31 03:38:20;;;;;;;;;;;;;;;11.56;nan;101164.91;5053065;28;19983;-86
2021/12/31 03:40:46;;;;;;;;;;;;;;;11.51;nan;101164.47;5055044;28;19964;-85
2021/12/31 03:43:12;;;;;;;;;;;;;;;11.55;nan;101165.03;5051262;28;19970;-86
2021/12/31 03:45:37;;;;;;;;;;;;;;;11.54;nan;101168.69;5046750;28;19921;-86
2021/12/31 03:48:03;;;;;;;;;;;;;;;11.53;nan;101167.81;5046030;28;19920;-86
2021/12/31 03:50:28;;;;;;;;;;;;;;;11.55;nan;101168.53;5049050;28;19921;-86
2021/12/31 03:52:53;;;;;;;;;;;;;;;11.62;nan;101168.78;5042300;28;19928;-86
2021/12/31 03:55:18;;;;;;;;;;;;;;;11.54;nan;101164.22;5049608;28;20290;-86
2021/12/31 03:57:43;;;;;;;;;;;;;;;11.57;nan;101153.31;5050370;28;19928;-86
2021/12/31 04:00:10;;;;;;;;;;;;;;;11.60;nan;101160.16;5048690;28;20356;-86
2021/12/31 04:02:35;;;;;;;;;;;;;;;11.54;nan;101155.44;5051953;28;20005;-86
2021/12/31 04:05:01;;;;;;;;;;;;;;;11.56;nan;101159.63;5053989;28;19920;-86
2021/12/31 04:07:26;;;;;;;;;;;;;;;11.53;nan;101164.34;5053337;28;19924;-86
2021/12/31 04:09:51;;;;;;;;;;;;;;;11.53;nan;101159.88;5052051;28;19924;-86
2021/12/31 04:12:17;;;;;;;;;;;;;;;11.56;nan;101154.31;5052870;28;19921;-86
2021/12/31 04:14:42;;;;;;;;;;;;;;;11.52;nan;101147.63;5053574;28;19928;-86
2021/12/31 04:17:08;;;;;;;;;;;;;;;11.52;nan;101152.94;5052323;28;19963;-86
2021/12/31 04:19:33;;;;;;;;;;;;;;;11.51;nan;101151.25;5053896;28;20332;-86
2021/12/31 04:21:58;;;;;;;;;;;;;;;11.53;nan;101140.50;5054283;28;20364;-86
2021/12/31 04:24:30;;;;;;;;;;;;;;;11.52;nan;101147.63;5054072;28;20450;-86
2021/12/31 04:26:56;;;;;;;;;;;;;;;11.44;nan;101139.53;5053013;28;19956;-86
2021/12/31 04:29:21;;;;;;;;;;;;;;;11.50;nan;101139.00;5054680;28;19928;-86
2021/12/31 04:31:46;;;;;;;;;;;;;;;11.47;nan;101134.81;5053404;28;19921;-86
2021/12/31 04:34:11;;;;;;;;;;;;;;;11.46;nan;101134.94;5053361;28;19967;-86
2021/12/31 04:36:37;;;;;;;;;;;;;;;11.46;nan;101129.66;5053777;28;19917;-86
2021/12/31 04:39:02;;;;;;;;;;;;;;;11.51;nan;101135.34;5054429;28;19921;-85
2021/12/31 04:41:27;;;;;;;;;;;;;;;11.48;nan;101133.00;5056292;28;19935;-85
2021/12/31 04:43:52;;;;;;;;;;;;;;;11.53;nan;101129.91;5056156;28;20424;-86
2021/12/31 04:46:18;;;;;;;;;;;;;;;11.55;nan;101122.66;5054047;28;20007;-85
2021/12/31 04:48:43;;;;;;;;;;;;;;;11.52;nan;101123.78;5041239;28;20373;-85
2021/12/31 04:51:08;;;;;;;;;;;;;;;11.47;nan;101115.44;5049698;28;19928;-85
2021/12/31 04:53:34;;;;;;;;;;;;;;;11.50;nan;101114.31;5054111;28;20035;-85
2021/12/31 04:55:59;;;;;;;;;;;;;;;11.51;nan;101111.50;5054886;28;19921;-85
2021/12/31 04:58:24;;;;;;;;;;;;;;;11.42;nan;101110.56;5052525;28;19917;-86
2021/12/31 05:00:50;;;;;;;;;;;;;;;11.44;nan;101102.47;5050804;28;19929;-85
2021/12/31 05:03:15;;;;;;;;;;;;;;;11.47;nan;101105.69;5052840;28;20382;-85
2021/12/31 05:05:40;;;;;;;;;;;;;;;11.46;nan;101106.66;5052245;28;19920;-85
2021/12/31 05:08:05;;;;;;;;;;;;;;;11.46;nan;101106.66;5054765;28;20011;-85
2021/12/31 05:10:32;;;;;;;;;;;;;;;11.40;nan;101096.63;5052480;28;19921;-85
2021/12/31 05:12:58;;;;;;;;;;;;;;;11.40;nan;101103.75;5052750;28;19963;-85
2021/12/31 05:15:27;;;;;;;;;;;;;;;11.42;nan;101105.28;5051651;28;19921;-85
2021/12/31 05:17:55;;;;;;;;;;;;;;;11.39;nan;101112.66;5044892;28;20298;-85
2021/12/31 05:20:21;;;;;;;;;;;;;;;11.42;nan;101107.09;5054057;28;19921;-85
2021/12/31 05:22:46;;;;;;;;;;;;;;;11.41;nan;101102.75;5058608;28;19921;-85
2021/12/31 05:25:11;;;;;;;;;;;;;;;11.38;nan;101103.06;5058101;28;20003;-85
2021/12/31 05:27:37;;;;;;;;;;;;;;;11.38;nan;101095.94;5048725;28;19918;-85
2021/12/31 05:30:03;;;;;;;;;;;;;;;11.34;nan;101099.00;5059099;28;19947;-85
2021/12/31 05:32:28;;;;;;;;;;;;;;;11.30;nan;101098.47;5057401;28;19928;-85
2021/12/31 05:34:57;;;;;;;;;;;;;;;11.36;nan;101100.53;5053429;28;19921;-85
2021/12/31 05:37:22;;;;;;;;;;;;;;;11.34;nan;101099.84;5052426;28;19964;-85
2021/12/31 05:39:47;;;;;;;;;;;;;;;11.40;nan;101098.47;5039926;28;20518;-85
2021/12/31 05:42:12;;;;;;;;;;;;;;;11.40;nan;101101.94;5049356;28;19921;-85
2021/12/31 05:44:38;;;;;;;;;;;;;;;11.41;nan;101098.28;5052698;28;19921;-85
2021/12/31 05:47:03;;;;;;;;;;;;;;;11.39;nan;101097.63;5049996;28;20131;-85
2021/12/31 05:49:28;;;;;;;;;;;;;;;11.39;nan;101097.63;5052167;28;19925;-86
2021/12/31 05:51:54;;;;;;;;;;;;;;;11.38;nan;101095.13;5045176;28;19970;-85
2021/12/31 05:54:19;;;;;;;;;;;;;;;11.34;nan;101091.06;5051328;28;20352;-85
2021/12/31 05:56:45;;;;;;;;;;;;;;;11.31;nan;101099.31;5051339;28;19917;-85
2021/12/31 05:59:10;;;;;;;;;;;;;;;11.24;nan;101102.50;5053780;28;19925;-85
2021/12/31 06:01:35;;;;;;;;;;;;;;;11.34;nan;101104.31;5053942;28;19924;-85
2021/12/31 06:04:00;;;;;;;;;;;;;;;11.20;nan;101124.13;5054079;28;19921;-85
2021/12/31 06:06:25;;;;;;;;;;;;;;;11.24;nan;101128.16;5053231;28;19920;-86
2021/12/31 06:08:51;;;;;;;;;;;;;;;11.28;nan;101129.56;5059228;28;19943;-85
2021/12/31 06:11:16;;;;;;;;;;;;;;;11.27;nan;101141.97;5070049;28;20418;-86
2021/12/31 06:13:43;;;;;;;;;;;;;;;11.36;nan;101144.72;5069190;28;19932;-85
2021/12/31 06:16:08;;;;;;;;;;;;;;;11.36;nan;101142.09;5055706;28;20335;-85
2021/12/31 06:18:34;;;;;;;;;;;;;;;11.29;nan;101147.09;5056284;28;19966;-85
2021/12/31 06:21:01;;;;;;;;;;;;;;;11.26;nan;101134.16;5055661;28;19936;-85
2021/12/31 06:23:26;;;;;;;;;;;;;;;11.19;nan;101141.00;5060378;28;19920;-85
2021/12/31 06:25:51;;;;;;;;;;;;;;;11.18;nan;101136.69;5057611;28;19982;-85
2021/12/31 06:28:17;;;;;;;;;;;;;;;11.15;nan;101137.78;5040170;28;19921;-85
2021/12/31 06:30:42;;;;;;;;;;;;;;;11.09;nan;101121.63;5046130;28;19921;-85
2021/12/31 06:33:07;;;;;;;;;;;;;;;11.00;nan;101128.59;5041835;28;20367;-85
2021/12/31 06:35:32;;;;;;;;;;;;;;;10.93;nan;101128.31;5050315;28;19977;-85
2021/12/31 06:37:58;;;;;;;;;;;;;;;10.85;nan;101133.47;5051470;28;19921;-85
2021/12/31 06:40:24;;;;;;;;;;;;;;;10.80;nan;101133.06;5049146;28;19936;-85
2021/12/31 06:42:50;;;;;;;;;;;;;;;10.70;nan;101127.75;5039491;28;19924;-85
2021/12/31 06:45:15;;;;;;;;;;;;;;;10.75;nan;101122.03;5051691;28;19927;-85
2021/12/31 06:47:40;;;;;;;;;;;;;;;10.68;nan;101116.47;5044219;28;19928;-85
2021/12/31 06:50:06;;;;;;;;;;;;;;;10.61;nan;101123.28;5048711;28;19929;-84
2021/12/31 06:52:36;;;;;;;;;;;;;;;10.58;nan;101121.75;5051051;28;20302;-85
2021/12/31 06:55:01;;;;;;;;;;;;;;;10.59;nan;101115.50;5051309;28;19927;-85
2021/12/31 06:57:26;;;;;;;;;;;;;;;10.52;nan;101122.28;5051528;28;19921;-85
2021/12/31 06:59:51;;;;;;;;;;;;;;;10.50;nan;101120.75;5051254;28;19935;-85
2021/12/31 07:02:17;;;;;;;;;;;;;;;10.52;nan;101118.81;5052186;28;19921;-85
2021/12/31 07:04:42;;;;;;;;;;;;;;;10.50;nan;101120.75;5051231;28;20186;-85
2021/12/31 07:07:07;;;;;;;;;;;;;;;10.44;nan;101121.28;5050804;28;19921;-85
2021/12/31 07:09:32;;;;;;;;;;;;;;;10.42;nan;101124.09;5048988;28;19927;-85
2021/12/31 07:11:57;;;;;;;;;;;;;;;10.41;nan;101117.13;5051059;28;19962;-85
2021/12/31 07:14:23;;;;;;;;;;;;;;;10.37;nan;101126.31;5046417;28;20264;-84
2021/12/31 07:16:48;;;;;;;;;;;;;;;10.38;nan;101114.75;5045101;28;19932;-85
2021/12/31 07:19:13;;;;;;;;;;;;;;;10.36;nan;101119.34;5050732;28;19921;-85
2021/12/31 07:21:38;;;;;;;;;;;;;;;10.37;nan;101110.47;5040110;28;19936;-85
2021/12/31 07:24:04;;;;;;;;;;;;;;;10.40;nan;101099.59;5040911;28;19921;-85
2021/12/31 07:26:29;;;;;;;;;;;;;;;10.36;nan;101104.31;5051066;28;20004;-84
2021/12/31 07:28:54;;;;;;;;;;;;;;;10.27;nan;101105.09;5051143;28;20394;-85
2021/12/31 07:31:19;;;;;;;;;;;;;;;10.24;nan;101109.81;5051944;28;19988;-84
2021/12/31 07:33:45;;;;;;;;;;;;;;;10.27;nan;101110.38;5051806;28;20425;-85
2021/12/31 07:36:10;;;;;;;;;;;;;;;10.24;nan;101113.28;5050388;28;19921;-85
2021/12/31 07:38:39;;;;;;;;;;;;;;;10.18;nan;101129.72;5054332;28;19932;-84
2021/12/31 07:41:05;;;;;;;;;;;;;;;10.14;nan;101128.28;5043131;28;20643;-85
2021/12/31 07:43:30;;;;;;;;;;;;;;;10.13;nan;101129.25;5055342;28;19963;-85
2021/12/31 07:45:56;;;;;;;;;;;;;;;10.16;nan;101127.19;5040750;28;20008;-85
2021/12/31 07:48:21;;;;;;;;;;;;;;;10.14;nan;101126.47;5046760;28;19935;-85
2021/12/31 07:50:47;;;;;;;;;;;;;;;10.16;nan;101127.19;5054201;28;19927;-85
2021/12/31 07:53:12;;;;;;;;;;;;;;;10.15;nan;101122.03;5054136;28;20344;-85
2021/12/31 07:55:38;;;;;;;;;;;;;;;10.14;nan;101121.19;5053255;28;19943;-86
2021/12/31 07:58:03;;;;;;;;;;;;;;;10.19;nan;101112.88;5046928;28;19967;-84
2021/12/31 08:00:29;;;;;;;;;;;;;;;10.17;nan;101110.34;5050050;28;19936;-85
2021/12/31 08:02:55;;;;;;;;;;;;;;;10.25;nan;101109.69;5054196;28;20301;-84
2021/12/31 08:05:20;;;;;;;;;;;;;;;10.33;nan;101124.91;5053644;28;19921;-85
2021/12/31 08:07:46;;;;;;;;;;;;;;;10.40;nan;101118.94;5053972;28;19936;-85
2021/12/31 08:10:11;;;;;;;;;;;;;;;10.40;nan;101115.47;5052255;28;20421;-85
2021/12/31 08:12:36;;;;;;;;;;;;;;;10.41;nan;101127.69;5054717;28;19943;-85
2021/12/31 08:15:02;;;;;;;;;;;;;;;10.44;nan;101126.59;5051283;28;19920;-85
2021/12/31 08:17:28;;;;;;;;;;;;;;;10.44;nan;101116.88;5053377;28;19921;-85
2021/12/31 08:19:53;;;;;;;;;;;;;;;10.47;nan;101113.13;5055233;28;19932;-85
2021/12/31 08:22:18;;;;;;;;;;;;;;;10.53;nan;101115.19;5051895;28;19916;-86
2021/12/31 08:24:43;;;;;;;;;;;;;;;10.59;nan;101112.00;5051847;28;19927;-85
2021/12/31 08:27:08;;;;;;;;;;;;;;;10.63;nan;101116.91;5054086;28;19952;-85
2021/12/31 08:29:34;;;;;;;;;;;;;;;10.60;nan;101117.16;5053035;28;19974;-85
2021/12/31 08:31:59;;;;;;;;;;;;;;;10.59;nan;101119.94;5054430;28;19928;-86
2021/12/31 08:34:24;;;;;;;;;;;;;;;10.68;nan;101127.06;5052946;28;20393;-85
2021/12/31 08:36:49;;;;;;;;;;;;;;;10.68;nan;101123.56;5050639;28;19928;-85
2021/12/31 08:39:15;;;;;;;;;;;;;;;10.70;nan;101121.63;5054124;28;19971;-85
2021/12/31 08:41:40;;;;;;;;;;;;;;;10.76;nan;101129.84;5054340;28;19978;-85
2021/12/31 08:44:07;;;;;;;;;;;;;;;10.72;nan;101127.59;5045789;28;19952;-85
2021/12/31 08:46:32;;;;;;;;;;;;;;;10.77;nan;101128.03;5044294;28;19947;-85
2021/12/31 08:48:58;;;;;;;;;;;;;;;10.76;nan;101129.84;5043079;28;19996;-85
2021/12/31 08:51:23;;;;;;;;;;;;;;;10.73;nan;101129.28;5053776;28;19921;-85
2021/12/31 08:53:49;;;;;;;;;;;;;;;10.81;nan;101124.97;5054470;28;19927;-85
2021/12/31 08:56:14;;;;;;;;;;;;;;;10.78;nan;101127.91;5052507;28;19943;-85
2021/12/31 08:58:39;;;;;;;;;;;;;;;10.80;nan;101117.19;5054748;28;19920;-85
2021/12/31 09:01:05;;;;;;;;;;;;;;;10.84;nan;101130.00;5054800;28;20061;-85
2021/12/31 09:03:30;;;;;;;;;;;;;;;10.86;nan;101129.00;5054270;28;19924;-85
2021/12/31 09:05:55;;;;;;;;;;;;;;;10.87;nan;101114.81;5054156;28;20020;-85
2021/12/31 09:08:21;;;;;;;;;;;;;;;10.90;nan;101133.06;5054832;28;19978;-85
2021/12/31 09:10:46;;;;;;;;;;;;;;;10.88;nan;101129.72;5056999;28;19920;-85
2021/12/31 09:13:11;;;;;;;;;;;;;;;10.93;nan;101132.78;5057163;28;20105;-85
2021/12/31 09:15:37;;;;;;;;;;;;;;;10.89;nan;101131.38;5046216;28;19921;-85
2021/12/31 09:18:02;;;;;;;;;;;;;;;10.98;nan;101135.84;5044616;28;19925;-85
2021/12/31 09:20:28;;;;;;;;;;;;;;;10.96;nan;101140.44;5047523;28;19925;-85
2021/12/31 09:22:54;;;;;;;;;;;;;;;10.96;nan;101151.00;5052805;28;20512;-85
2021/12/31 09:25:19;;;;;;;;;;;;;;;10.93;nan;101156.59;5053936;28;19921;-84
2021/12/31 09:27:44;;;;;;;;;;;;;;;10.92;nan;101152.28;5044689;28;19921;-86
2021/12/31 09:30:10;;;;;;;;;;;;;;;10.99;nan;101151.59;5047581;28;19933;-86
2021/12/31 09:32:35;;;;;;;;;;;;;;;10.96;nan;101151.00;5048587;28;19943;-86
2021/12/31 09:35:01;;;;;;;;;;;;;;;11.00;nan;101155.88;5052649;28;19936;-86
2021/12/31 09:37:26;;;;;;;;;;;;;;;11.03;nan;101168.84;5052139;28;19920;-85
2021/12/31 09:39:51;;;;;;;;;;;;;;;10.99;nan;101161.34;5051798;28;20378;-86
2021/12/31 09:42:16;;;;;;;;;;;;;;;11.08;nan;101163.13;5039777;28;19975;-86
2021/12/31 09:44:43;;;;;;;;;;;;;;;11.06;nan;101170.41;5047459;28;19944;-85
2021/12/31 09:47:12;;;;;;;;;;;;;;;11.12;nan;101156.59;5050385;28;19929;-85
2021/12/31 09:49:38;;;;;;;;;;;;;;;11.07;nan;101148.25;5051948;28;19921;-85
2021/12/31 09:52:03;;;;;;;;;;;;;;;11.07;nan;101144.75;5052197;28;19949;-86
2021/12/31 09:54:29;;;;;;;;;;;;;;;11.14;nan;101140.56;5053199;28;19939;-86
2021/12/31 09:56:54;;;;;;;;;;;;;;;11.15;nan;101127.19;5049104;28;19927;-85
2021/12/31 09:59:19;;;;;;;;;;;;;;;11.14;nan;101125.53;5051963;28;19959;-86
2021/12/31 10:01:48;;;;;;;;;;;;;;;11.23;nan;101122.03;5051067;28;20008;-85
2021/12/31 10:04:13;;;;;;;;;;;;;;;11.21;nan;101115.22;5051659;28;19921;-85
2021/12/31 10:06:58;;;;;;;;;;;;;;;11.24;nan;101113.09;5049638;28;19970;-85
2021/12/31 10:09:24;;;;;;;;;;;;;;;11.32;nan;101122.16;5047448;28;19924;-85
2021/12/31 10:11:49;;;;;;;;;;;;;;;11.33;nan;101113.25;5047397;28;19951;-85
2021/12/31 10:14:14;;;;;;;;;;;;;;;11.36;nan;101112.94;5049857;28;19939;-86
2021/12/31 10:16:40;;;;;;;;;;;;;;;11.40;nan;101117.00;5051927;28;20008;-86
2021/12/31 10:19:11;;;;;;;;;;;;;;;11.45;nan;101115.56;5053061;28;19988;-85
2021/12/31 10:21:39;;;;;;;;;;;;;;;11.50;nan;101109.84;5047315;28;19992;-85
2021/12/31 10:24:25;;;;;;;;;;;;;;;11.59;nan;101116.13;5049448;28;20011;-85
2021/12/31 10:26:51;;;;;;;;;;;;;;;11.61;nan;101122.09;5045808;28;19972;-85
2021/12/31 10:29:16;;;;;;;;;;;;;;;11.66;nan;101119.84;5043376;28;19945;-85
2021/12/31 10:31:46;;;;;;;;;;;;;;;11.68;nan;101125.84;5048759;28;20441;-85
2021/12/31 10:34:27;;;;;;;;;;;;;;;11.76;nan;101133.06;5057296;28;19984;-87
2021/12/31 10:36:52;;;;;;;;;;;;;;;11.80;nan;101124.69;5038615;28;19925;-87
2021/12/31 10:39:19;;;;;;;;;;;;;;;11.89;nan;101115.91;5048290;28;19928;-85
2021/12/31 10:41:48;;;;;;;;;;;;;;;11.93;nan;101124.38;5042946;28;19925;-87
2021/12/31 10:44:14;;;;;;;;;;;;;;;11.97;nan;101128.41;5036661;28;19921;-87
2021/12/31 10:46:39;;;;;;;;;;;;;;;11.97;nan;101133.72;5040347;28;20004;-87
2021/12/31 10:49:09;;;;;;;;;;;;;;;12.02;nan;101138.59;5038485;28;20393;-86
2021/12/31 10:51:43;;;;;;;;;;;;;;;12.14;nan;101139.22;5049748;28;19921;-88
2021/12/31 10:54:29;;;;;;;;;;;;;;;12.15;nan;101146.19;5063394;28;19965;-88
2021/12/31 10:56:55;;;;;;;;;;;;;;;12.14;nan;101136.59;5038218;28;20378;-88
2021/12/31 10:59:20;;;;;;;;;;;;;;;12.18;nan;101135.28;5045761;28;19921;-87
2021/12/31 11:01:46;;;;;;;;;;;;;;;12.18;nan;101144.09;5045644;28;20160;-87
2021/12/31 11:04:12;;;;;;;;;;;;;;;12.21;nan;101141.13;5042040;28;19921;-87
2021/12/31 11:06:40;;;;;;;;;;;;;;;12.21;nan;101141.13;5041673;28;20032;-87
2021/12/31 11:09:06;;;;;;;;;;;;;;;12.17;nan;101153.00;5048167;28;19920;-87
2021/12/31 11:11:31;;;;;;;;;;;;;;;12.22;nan;101152.56;5044920;28;20377;-87
2021/12/31 11:13:57;;;;;;;;;;;;;;;12.32;nan;101150.69;5065163;28;19975;-87
2021/12/31 11:16:22;;;;;;;;;;;;;;;12.29;nan;101153.66;5047596;28;20530;-87
2021/12/31 11:18:49;;;;;;;;;;;;;;;12.24;nan;101153.25;5050627;28;19925;-87
2021/12/31 11:21:15;;;;;;;;;;;;;;;12.36;nan;101154.72;5049175;28;20020;-87
2021/12/31 11:23:42;;;;;;;;;;;;;;;12.38;nan;101158.06;5049516;28;19952;-87
2021/12/31 11:26:11;;;;;;;;;;;;;;;12.46;nan;101163.47;5053835;28;20181;-86
2021/12/31 11:28:40;;;;;;;;;;;;;;;12.49;nan;101160.53;5054654;28;19970;-86
2021/12/31 11:31:18;;;;;;;;;;;;;;;12.49;nan;101167.66;5055041;28;19924;-86
2021/12/31 11:33:45;;;;;;;;;;;;;;;12.49;nan;101160.53;5053701;28;19917;-86
2021/12/31 11:36:11;;;;;;;;;;;;;;;12.53;nan;101145.97;5053853;28;19920;-87
2021/12/31 11:38:40;;;;;;;;;;;;;;;12.60;nan;101145.38;5054636;28;20015;-86
2021/12/31 11:41:07;;;;;;;;;;;;;;;12.60;nan;101132.94;5054230;28;20070;-86
2021/12/31 11:43:33;;;;;;;;;;;;;;;12.65;nan;101135.16;5054239;28;19939;-86
2021/12/31 11:46:11;;;;;;;;;;;;;;;12.68;nan;101129.53;5056523;28;19917;-87
2021/12/31 11:48:42;;;;;;;;;;;;;;;12.76;nan;101113.72;5054112;28;19924;-86
2021/12/31 11:51:08;;;;;;;;;;;;;;;12.69;nan;101080.81;5055190;28;20406;-87
2021/12/31 11:53:53;;;;;;;;;;;;;;;12.72;nan;101062.75;5054714;28;20111;-87
2021/12/31 11:56:47;;;;;;;;;;;;;;;12.81;nan;101047.72;5054607;28;20384;-87
2021/12/31 11:59:13;;;;;;;;;;;;;;;12.83;nan;101040.44;5056907;28;19956;-85
2021/12/31 12:01:51;;;;;;;;;;;;;;;12.80;nan;101038.13;5059064;28;19925;-85
2021/12/31 12:04:16;;;;;;;;;;;;;;;12.81;nan;101058.34;5058068;28;20243;-87
2021/12/31 12:06:57;;;;;;;;;;;;;;;12.92;nan;101059.94;5055083;28;19996;-84
2021/12/31 12:09:38;;;;;;;;;;;;;;;13.01;nan;101047.53;5052762;28;20404;-85
2021/12/31 12:12:03;;;;;;;;;;;;;;;13.03;nan;101050.88;5052622;28;20404;-85
2021/12/31 12:14:30;;;;;;;;;;;;;;;13.03;nan;101050.88;5038842;28;20023;-85
2021/12/31 12:16:58;;;;;;;;;;;;;;;13.04;nan;101053.41;5054553;28;19952;-85
2021/12/31 12:19:42;;;;;;;;;;;;;;;13.01;nan;101060.81;5051706;28;20193;-85
2021/12/31 12:22:08;;;;;;;;;;;;;;;12.99;nan;101063.66;5048275;28;19947;-86
2021/12/31 12:24:33;;;;;;;;;;;;;;;13.00;nan;101056.50;5046789;28;19956;-85
2021/12/31 12:27:03;;;;;;;;;;;;;;;12.99;nan;101061.00;5047649;28;19944;-86
2021/12/31 12:29:28;;;;;;;;;;;;;;;12.95;nan;101044.53;5050016;28;20286;-85
2021/12/31 12:32:06;;;;;;;;;;;;;;;12.98;nan;101053.16;5047718;28;19928;-86
2021/12/31 12:34:31;;;;;;;;;;;;;;;12.93;nan;101035.06;5045439;28;19920;-86
2021/12/31 12:36:56;;;;;;;;;;;;;;;12.87;nan;101025.91;5054448;28;19928;-87
2021/12/31 12:39:22;;;;;;;;;;;;;;;12.84;nan;101020.88;5051703;28;19955;-86
2021/12/31 12:41:48;;;;;;;;;;;;;;;12.82;nan;101036.13;5048667;28;20011;-87
2021/12/31 12:44:14;;;;;;;;;;;;;;;12.76;nan;101055.31;5043649;28;19917;-86
2021/12/31 12:46:50;;;;;;;;;;;;;;;12.85;nan;101057.06;5042096;28;19921;-86
2021/12/31 12:49:17;;;;;;;;;;;;;;;12.85;nan;101049.09;5049265;28;19921;-86
2021/12/31 12:51:43;;;;;;;;;;;;;;;12.85;nan;101042.97;5048287;28;19920;-86
2021/12/31 12:54:11;;;;;;;;;;;;;;;12.83;nan;101026.34;5041521;28;19943;-86
2021/12/31 12:56:38;;;;;;;;;;;;;;;12.80;nan;100993.00;5049568;28;20557;-86
2021/12/31 12:59:04;;;;;;;;;;;;;;;12.71;nan;100989.44;5050049;28;20153;-87